Flight Briefing for CPX220

Departure Arrival
March Air Reserve Base (KRIV)
Click to view FAA NOTAMS
Seattle-Tacoma International Airport (KSEA)
Click to view FAA NOTAMS
Departure Time Arrival Time
N/A N/A
Aircraft Distance
B767-300BDSF 833nm
Departure METAR Arrival METAR
KRIV 230610Z AUTO 16005KT 10SM FEW007 09/09 A2983 RMK AO2 SLP099 KSEA 230553Z 11004KT 10SM OVC120 19/11 A3003 RMK AO2 SLP174 T01890106 10239 20189 51015
Suggested Route
SLI J78 LAX J1 AVE J189 LMT HAWKZ7


View recent IFR Routes data
Notes



Charts and Procedures

Charts for KRIV
No chart available
Charts for KSEA
No chart available

Windy.com Weather Map